Kezdőlap
METAR-TAF:

METAR-TAF

Repülőterek :

Tri-County Regional Airport

Lone Rock, Wisconsin, Amerikai Egyesült Államok

földrajzi szélesség: 43-12-43N, földrajzi hosszúság: 090-10-53W, magasság: 219 m

Jelenlegi meteorológiai megfigyelések

A jelentés 55 perccel ezelõtt készült, 18:56 UTC
Dél-délnyugati szél 10 kt széllökések: 19 kt
Hőmérséklet 27°C
Páratartalom 79%
Légköri nyomás 1008 hPa
Látótávolság: 16.1 km
Szórványos felhőzet 2100 lábon
Szakadozott felhőzet 3200 lábon
Szakadozott felhőzet 4100 lábon

METAR: KLNR 221856Z AUTO 21010G19KT 10SM SCT021 BKN032 BKN041 27/23 A2977 RMK AO2 LTG DSNT S SLP071 T02670228

Idő: 14:51 (19:51 UTC)


TAF: hiányzik

Meteorológiai megfigyelések és előrejelzések több, mint 4000 repülőtéren (METAR és TAF jelentéseket).

A térképen piros és sárga pontok jelzik az elérhető meteorológiai állomásokat.

Mozgassa az egeret a pont fölött, hogy megjelenjen az állomás neve.

Azután kattintson az időjárási megfigyelések és előrejelzések megtekintéséhez.

A térkép megváltoztatása: kattintson a fekete keresztel jelölt zöld gombra ráközelítéshez, a vonallal jelölt zöld gombra távolításhoz, vagy a zöld nyilakra a szomszédos térképek eléréséhez.


METAR-TAF: